createdAt,value
2018-08-12T00:01:23.829Z,2.23
2018-08-12T00:03:51.579Z,2.03
2018-08-12T00:06:19.275Z,2.30
2018-08-12T00:08:46.915Z,2.50
2018-08-12T00:11:14.453Z,2.80
2018-08-12T00:13:42.123Z,2.67
2018-08-12T00:16:09.869Z,2.67
2018-08-12T00:18:37.549Z,3.30
2018-08-12T00:21:05.427Z,3.73
2018-08-12T00:23:33.162Z,3.20
2018-08-12T00:26:00.837Z,3.37
2018-08-12T00:28:28.573Z,3.00
2018-08-12T00:30:56.100Z,2.40
2018-08-12T00:33:23.775Z,2.67
2018-08-12T00:35:51.438Z,2.57
2018-08-12T00:38:19.158Z,2.77
2018-08-12T00:40:46.638Z,2.50
2018-08-12T00:43:14.340Z,2.10
2018-08-12T00:45:41.984Z,2.50
2018-08-12T00:48:09.690Z,2.50
2018-08-12T00:50:37.343Z,2.30
2018-08-12T00:53:05.088Z,2.80
2018-08-12T00:55:32.759Z,2.80
2018-08-12T00:58:00.480Z,2.33
2018-08-12T01:00:28.195Z,2.90
2018-08-12T01:02:55.900Z,2.30
2018-08-12T01:05:23.522Z,2.50
2018-08-12T01:07:51.148Z,2.40
2018-08-12T01:10:19.354Z,3.00
2018-08-12T01:12:47.093Z,2.60
2018-08-12T01:15:20.831Z,2.70
2018-08-12T01:17:48.358Z,2.07
2018-08-12T01:20:18.956Z,2.50
2018-08-12T01:22:46.639Z,2.37
2018-08-12T01:25:14.350Z,2.70
2018-08-12T01:27:42.041Z,2.10
2018-08-12T01:30:12.078Z,2.20
2018-08-12T01:32:39.843Z,2.80
2018-08-12T01:35:08.734Z,2.43
2018-08-12T01:37:36.530Z,2.60
2018-08-12T01:40:05.698Z,2.60
2018-08-12T01:42:33.330Z,2.67
2018-08-12T01:45:00.935Z,2.70
2018-08-12T01:47:28.545Z,2.77
2018-08-12T01:49:56.236Z,2.60
2018-08-12T01:52:23.925Z,2.20
2018-08-12T01:54:51.508Z,2.13
2018-08-12T01:57:19.200Z,2.47
2018-08-12T01:59:46.833Z,2.23
2018-08-12T02:02:14.456Z,1.97
2018-08-12T02:04:42.101Z,2.33
2018-08-12T02:07:09.675Z,2.27
2018-08-12T02:09:37.286Z,2.00
2018-08-12T02:12:05.001Z,2.00
2018-08-12T02:14:32.510Z,2.10
2018-08-12T02:17:00.168Z,2.20
2018-08-12T02:19:27.810Z,2.10
2018-08-12T02:21:55.514Z,2.10
2018-08-12T02:24:22.983Z,2.07
2018-08-12T02:26:50.574Z,2.37
2018-08-12T02:29:18.175Z,2.10
2018-08-12T02:31:45.837Z,2.07
2018-08-12T02:34:13.435Z,2.00
2018-08-12T02:36:41.082Z,2.43
2018-08-12T02:39:10.213Z,2.07
2018-08-12T02:41:37.855Z,2.10
2018-08-12T02:44:05.577Z,2.13
2018-08-12T02:46:33.603Z,2.30
2018-08-12T02:49:01.447Z,1.90
2018-08-12T02:51:29.201Z,2.20
2018-08-12T02:53:56.981Z,2.00
2018-08-12T02:56:24.495Z,1.60
2018-08-12T02:58:52.165Z,1.90
2018-08-12T03:01:20.074Z,2.43
2018-08-12T03:03:47.692Z,2.47
2018-08-12T03:06:15.350Z,2.30
2018-08-12T03:08:42.956Z,2.50
2018-08-12T03:11:10.684Z,2.30
2018-08-12T03:13:38.411Z,2.40
2018-08-12T03:16:06.092Z,2.20
2018-08-12T03:18:33.723Z,2.20
2018-08-12T03:21:01.661Z,2.07
2018-08-12T03:23:29.319Z,1.90
2018-08-12T03:25:56.970Z,2.33
2018-08-12T03:28:24.571Z,2.30
2018-08-12T03:30:52.256Z,2.03
2018-08-12T03:33:19.819Z,2.47
2018-08-12T03:35:47.493Z,2.60
2018-08-12T03:38:15.150Z,2.60
2018-08-12T03:40:42.776Z,2.80
2018-08-12T03:43:10.234Z,2.40
2018-08-12T03:45:37.921Z,2.93
2018-08-12T03:48:05.654Z,2.40
2018-08-12T03:50:33.199Z,2.90
2018-08-12T03:53:00.900Z,2.57
2018-08-12T03:55:28.610Z,2.80
2018-08-12T03:57:56.240Z,2.83
2018-08-12T04:00:23.939Z,2.33
2018-08-12T04:02:51.646Z,2.33
2018-08-12T04:05:19.295Z,2.73
2018-08-12T04:07:46.934Z,2.20
2018-08-12T04:10:14.576Z,2.30
2018-08-12T04:12:42.315Z,2.60
2018-08-12T04:15:11.010Z,2.60
2018-08-12T04:17:38.840Z,2.27
2018-08-12T04:20:07.370Z,2.40
2018-08-12T04:22:35.254Z,2.27
2018-08-12T04:25:04.678Z,2.53
2018-08-12T04:27:32.463Z,2.60
2018-08-12T04:30:00.190Z,2.37
2018-08-12T04:32:27.850Z,2.23
2018-08-12T04:34:55.610Z,2.07
2018-08-12T04:37:23.210Z,2.10
2018-08-12T04:39:50.844Z,2.70
2018-08-12T04:42:18.529Z,2.27
2018-08-12T04:44:46.167Z,1.80
2018-08-12T04:47:13.791Z,2.10
2018-08-12T04:49:41.406Z,2.43
2018-08-12T04:52:09.115Z,2.27
2018-08-12T04:54:36.733Z,2.23
2018-08-12T04:57:04.429Z,2.10
2018-08-12T04:59:31.945Z,2.40
2018-08-12T05:01:59.665Z,2.47
2018-08-12T05:04:27.291Z,2.53
2018-08-12T05:06:55.032Z,2.50
2018-08-12T05:09:22.726Z,2.50
2018-08-12T05:11:50.352Z,2.97
2018-08-12T05:14:17.995Z,2.40
2018-08-12T05:16:45.704Z,2.10
2018-08-12T05:19:13.362Z,2.43
2018-08-12T05:21:40.999Z,2.90
2018-08-12T05:24:08.599Z,2.27
2018-08-12T05:26:36.238Z,2.40
2018-08-12T05:29:03.822Z,2.00
2018-08-12T05:31:31.460Z,1.90
2018-08-12T05:33:59.120Z,2.47
2018-08-12T05:36:26.806Z,2.70
2018-08-12T05:38:54.465Z,2.53
2018-08-12T05:41:22.146Z,2.60
2018-08-12T05:43:49.662Z,2.00
2018-08-12T05:46:17.287Z,2.23
2018-08-12T05:48:45.063Z,2.57
2018-08-12T05:51:12.823Z,2.20
2018-08-12T05:53:40.436Z,2.30
2018-08-12T05:56:08.134Z,2.70
2018-08-12T05:58:35.804Z,2.43
2018-08-12T06:01:03.535Z,2.30
2018-08-12T06:03:31.260Z,2.70
2018-08-12T06:05:58.895Z,2.20
2018-08-12T06:08:26.558Z,2.43
2018-08-12T06:10:54.191Z,2.30
2018-08-12T06:13:21.700Z,2.53
2018-08-12T06:15:49.660Z,2.00
2018-08-12T06:18:17.325Z,2.27
2018-08-12T06:20:45.026Z,2.20
2018-08-12T06:23:12.735Z,2.07
2018-08-12T06:25:40.465Z,2.00
2018-08-12T06:28:08.086Z,1.97
2018-08-12T06:30:35.856Z,2.10
2018-08-12T06:33:03.867Z,2.13
2018-08-12T06:35:31.490Z,1.90
2018-08-12T06:37:59.113Z,2.20
2018-08-12T06:40:26.897Z,2.03
2018-08-12T06:42:54.497Z,2.30
2018-08-12T06:45:22.065Z,2.10
2018-08-12T06:47:49.768Z,1.50
2018-08-12T06:50:17.426Z,1.50
2018-08-12T06:52:45.083Z,1.57
2018-08-12T06:55:13.453Z,1.60
2018-08-12T06:57:42.262Z,1.73
2018-08-12T07:00:14.791Z,1.50
2018-08-12T07:02:42.566Z,1.03
2018-08-12T07:05:10.896Z,1.30
2018-08-12T07:07:38.721Z,1.30
2018-08-12T07:10:09.768Z,1.10
2018-08-12T07:12:37.461Z,1.37
2018-08-12T07:15:07.316Z,1.03
2018-08-12T07:17:34.991Z,1.20
2018-08-12T07:20:02.708Z,1.23
2018-08-12T07:22:30.317Z,1.17
2018-08-12T07:24:57.948Z,1.20
2018-08-12T07:27:25.603Z,1.00
2018-08-12T07:29:53.236Z,0.83
2018-08-12T07:32:20.952Z,1.13
2018-08-12T07:34:48.438Z,1.13
2018-08-12T07:37:15.942Z,1.10
2018-08-12T07:39:43.620Z,0.90
2018-08-12T07:42:11.327Z,1.10
2018-08-12T07:44:39.105Z,0.70
2018-08-12T07:47:06.726Z,1.03
2018-08-12T07:49:34.384Z,1.00
2018-08-12T07:52:02.028Z,1.10
2018-08-12T07:54:29.711Z,0.93
2018-08-12T07:56:57.391Z,1.10
2018-08-12T07:59:25.050Z,0.97
2018-08-12T08:01:52.771Z,1.00
2018-08-12T08:04:20.478Z,1.10
2018-08-12T08:06:48.206Z,0.87
2018-08-12T08:09:15.859Z,0.80
2018-08-12T08:11:43.472Z,1.10
2018-08-12T08:14:11.138Z,0.93
2018-08-12T08:16:38.813Z,0.70
2018-08-12T08:19:06.588Z,1.20
2018-08-12T08:21:34.208Z,1.10
2018-08-12T08:24:01.753Z,0.80
2018-08-12T08:26:29.414Z,0.80
2018-08-12T08:28:57.234Z,1.10
2018-08-12T08:31:24.913Z,1.00
2018-08-12T08:33:52.461Z,0.87
2018-08-12T08:36:20.331Z,0.70
2018-08-12T08:38:47.999Z,0.80
2018-08-12T08:41:15.611Z,0.77
2018-08-12T08:43:43.303Z,0.80
2018-08-12T08:46:10.991Z,0.90
2018-08-12T08:48:38.667Z,1.07
2018-08-12T08:51:06.382Z,0.90
2018-08-12T08:53:33.932Z,0.90
2018-08-12T08:58:23.837Z,0.80
2018-08-12T09:00:51.470Z,0.80
2018-08-12T09:03:19.147Z,0.90
2018-08-12T09:05:46.855Z,0.90
2018-08-12T09:08:14.815Z,0.80
2018-08-12T09:11:02.435Z,0.97
2018-08-12T09:13:50.748Z,0.83
2018-08-12T09:16:41.757Z,0.90
2018-08-12T09:19:14.561Z,0.80
2018-08-12T09:21:55.495Z,1.27
2018-08-12T09:24:27.227Z,0.73
2018-08-12T09:27:13.253Z,0.90
2018-08-12T09:29:55.871Z,0.87
2018-08-12T09:32:36.974Z,0.80
2018-08-12T09:35:24.486Z,1.10
2018-08-12T09:38:05.433Z,1.00
2018-08-12T09:40:47.806Z,0.90
2018-08-12T09:43:34.366Z,1.00
2018-08-12T09:46:17.817Z,0.90
2018-08-12T09:49:05.412Z,0.90
2018-08-12T09:51:47.827Z,0.90
2018-08-12T09:54:27.000Z,0.80
2018-08-12T09:57:08.078Z,1.00
2018-08-12T09:59:58.458Z,0.90
2018-08-12T10:02:40.854Z,0.70
2018-08-12T10:05:24.828Z,1.00
2018-08-12T10:08:09.233Z,0.80
2018-08-12T10:10:50.568Z,0.93
2018-08-12T10:13:28.260Z,1.00
2018-08-12T10:16:04.685Z,1.03
2018-08-12T10:18:47.577Z,0.87
2018-08-12T10:21:31.379Z,0.90
2018-08-12T10:24:00.584Z,1.10
2018-08-12T10:26:28.286Z,0.85
2018-08-12T10:28:56.062Z,0.70
2018-08-12T10:31:23.697Z,0.90
2018-08-12T10:33:51.382Z,0.82
2018-08-12T10:36:19.030Z,0.90
2018-08-12T10:38:46.682Z,0.80
2018-08-12T10:41:14.412Z,0.98
2018-08-12T10:43:42.087Z,1.02
2018-08-12T10:46:09.768Z,0.93
2018-08-12T10:48:37.527Z,1.00
2018-08-12T10:51:05.352Z,0.90
2018-08-12T10:53:33.027Z,0.80
2018-08-12T10:56:00.718Z,1.20
2018-08-12T10:58:28.518Z,1.05
2018-08-12T11:00:56.127Z,0.75
2018-08-12T11:03:23.728Z,0.80
2018-08-12T11:05:51.487Z,0.72
2018-08-12T11:08:19.193Z,0.98
2018-08-12T11:13:25.996Z,0.85
2018-08-12T11:15:53.663Z,0.98
2018-08-12T11:18:21.308Z,1.10
2018-08-12T11:20:48.839Z,0.90
2018-08-12T11:23:16.342Z,0.90
2018-08-12T11:25:43.997Z,0.90
2018-08-12T11:28:11.742Z,0.80
2018-08-12T11:30:39.393Z,0.80
2018-08-12T11:33:06.928Z,0.85
2018-08-12T11:35:34.657Z,0.82
2018-08-12T11:38:02.537Z,0.98
2018-08-12T11:40:30.256Z,0.80
2018-08-12T11:42:57.773Z,0.90
2018-08-12T11:45:25.422Z,0.60
2018-08-12T11:47:53.089Z,0.88
2018-08-12T11:50:20.763Z,0.80
2018-08-12T11:52:48.347Z,0.60
2018-08-12T11:55:17.483Z,1.27
2018-08-12T11:57:45.256Z,0.98
2018-08-12T12:00:19.816Z,0.80
2018-08-12T12:02:48.793Z,0.80
2018-08-12T12:05:16.533Z,0.93
2018-08-12T12:07:44.368Z,0.80
2018-08-12T12:10:14.572Z,0.82
2018-08-12T12:12:43.183Z,0.78
2018-08-12T12:15:11.350Z,0.85
2018-08-12T12:17:39.057Z,1.07
2018-08-12T12:20:08.737Z,0.85
2018-08-12T12:22:37.409Z,0.82
2018-08-12T12:25:06.425Z,0.80
2018-08-12T12:27:34.632Z,0.88
2018-08-12T12:30:02.344Z,0.93
2018-08-12T12:32:29.943Z,1.40
2018-08-12T12:34:57.684Z,0.90
2018-08-12T12:37:25.281Z,0.80
2018-08-12T12:39:52.943Z,1.00
2018-08-12T12:55:15.173Z,0.68
2018-08-12T12:57:42.928Z,0.95
2018-08-12T13:00:12.664Z,0.88
2018-08-12T13:02:40.318Z,0.68
2018-08-12T13:05:09.863Z,0.90
2018-08-12T13:07:37.605Z,0.90
2018-08-12T13:10:05.968Z,0.80
2018-08-12T13:12:33.710Z,0.70
2018-08-12T13:15:01.398Z,0.93
2018-08-12T13:17:29.065Z,0.80
2018-08-12T13:19:56.799Z,0.90
2018-08-12T13:22:24.322Z,0.70
2018-08-12T13:24:52.016Z,0.80
2018-08-12T13:27:19.708Z,0.90
2018-08-12T13:29:48.394Z,0.80
2018-08-12T13:32:16.074Z,0.80
2018-08-12T13:34:43.765Z,0.90
2018-08-12T13:37:11.480Z,0.80
2018-08-12T13:39:39.413Z,0.90
2018-08-12T13:42:06.928Z,0.90
2018-08-12T13:44:34.649Z,0.80
2018-08-12T13:47:02.304Z,1.00
2018-08-12T13:49:30.024Z,1.10
2018-08-12T13:51:57.553Z,0.95
2018-08-12T13:54:25.178Z,0.90
2018-08-12T13:56:52.875Z,1.00
2018-08-12T13:59:20.608Z,1.02
2018-08-12T14:01:48.251Z,0.80
2018-08-12T14:04:15.929Z,0.70
2018-08-12T14:06:43.589Z,0.80
2018-08-12T14:09:11.172Z,0.93
2018-08-12T14:11:39.033Z,1.00
2018-08-12T14:14:07.142Z,0.93
2018-08-12T14:16:34.999Z,0.80
2018-08-12T14:19:03.446Z,0.90
2018-08-12T14:21:31.774Z,0.90
2018-08-12T14:24:00.408Z,0.90
2018-08-12T14:26:28.069Z,0.80
2018-08-12T14:29:10.229Z,1.20
2018-08-12T14:31:48.943Z,0.80
2018-08-12T14:34:36.276Z,0.85
2018-08-12T14:37:22.799Z,0.98
2018-08-12T14:40:00.320Z,0.95
2018-08-12T14:42:43.150Z,0.80
2018-08-12T14:45:35.441Z,0.93
2018-08-12T14:48:29.778Z,0.95
2018-08-12T14:51:20.257Z,0.93
2018-08-12T14:54:09.052Z,0.82
2018-08-12T14:56:37.690Z,0.93
2018-08-12T14:59:07.985Z,0.90
2018-08-12T15:01:35.883Z,0.82
2018-08-12T15:04:04.609Z,0.90
2018-08-12T15:06:45.200Z,0.88
2018-08-12T15:09:13.095Z,0.90
2018-08-12T15:11:41.020Z,0.90
2018-08-12T15:14:09.427Z,0.93
2018-08-12T15:16:59.139Z,0.90
2018-08-12T15:19:49.014Z,0.90
2018-08-12T15:22:35.020Z,1.07
2018-08-12T15:25:04.910Z,0.80
2018-08-12T15:27:32.985Z,1.02
2018-08-12T15:30:01.002Z,0.90
2018-08-12T15:32:28.677Z,0.90
2018-08-12T15:34:56.334Z,0.90
2018-08-12T15:37:24.061Z,0.98
2018-08-12T15:39:51.653Z,1.00
2018-08-12T15:42:20.018Z,0.80
2018-08-12T15:44:47.628Z,1.00
2018-08-12T15:47:15.378Z,1.10
2018-08-12T15:49:44.292Z,1.00
2018-08-12T15:52:11.974Z,1.10
2018-08-12T15:54:39.615Z,0.93
2018-08-12T15:57:07.256Z,0.90
2018-08-12T15:59:34.910Z,1.05
2018-08-12T16:02:02.648Z,1.00
2018-08-12T16:04:30.338Z,1.10
2018-08-12T16:06:57.860Z,1.00
2018-08-12T16:09:25.507Z,0.98
2018-08-12T16:11:53.151Z,1.00
2018-08-12T16:14:20.798Z,1.07
2018-08-12T16:16:48.524Z,1.00
2018-08-12T16:19:16.192Z,1.00
2018-08-12T16:21:43.898Z,1.10
2018-08-12T16:24:11.655Z,1.20
2018-08-12T16:26:39.287Z,1.22
2018-08-12T16:29:06.964Z,1.20
2018-08-12T16:31:34.621Z,1.20
2018-08-12T16:34:02.283Z,0.90
2018-08-12T16:36:29.963Z,1.10
2018-08-12T16:38:57.718Z,1.02
2018-08-12T16:41:25.343Z,1.37
2018-08-12T16:43:53.022Z,1.30
2018-08-12T16:46:20.719Z,1.00
2018-08-12T16:48:48.469Z,1.30
2018-08-12T16:51:15.983Z,1.30
2018-08-12T16:53:43.702Z,1.20
2018-08-12T16:56:11.386Z,1.40
2018-08-12T16:58:39.102Z,1.00
2018-08-12T17:01:06.759Z,1.03
2018-08-12T17:03:34.460Z,1.47
2018-08-12T17:06:02.115Z,1.37
2018-08-12T17:08:29.788Z,1.10
2018-08-12T17:10:57.465Z,1.10
2018-08-12T17:13:25.171Z,1.10
2018-08-12T17:15:53.163Z,1.20
2018-08-12T17:18:20.738Z,1.60
2018-08-12T17:20:48.444Z,1.10
2018-08-12T17:23:16.090Z,1.07
2018-08-12T17:25:43.822Z,1.40
2018-08-12T17:28:11.458Z,1.20
2018-08-12T17:30:39.172Z,1.00
2018-08-12T17:33:06.838Z,1.30
2018-08-12T17:35:34.538Z,1.23
2018-08-12T17:38:02.255Z,1.07
2018-08-12T17:40:29.971Z,1.30
2018-08-12T17:45:21.845Z,1.33
2018-08-12T17:47:49.628Z,1.03
2018-08-12T17:50:17.722Z,1.23
2018-08-12T17:52:45.429Z,1.10
2018-08-12T17:55:13.138Z,1.17
2018-08-12T17:57:40.811Z,1.37
2018-08-12T18:00:11.205Z,1.10
2018-08-12T18:02:39.019Z,1.30
2018-08-12T18:05:07.099Z,1.10
2018-08-12T18:07:34.790Z,1.20
2018-08-12T18:10:02.464Z,1.00
2018-08-12T18:12:30.153Z,1.37
2018-08-12T18:14:57.872Z,1.50
2018-08-12T18:17:25.538Z,1.30
2018-08-12T18:19:53.219Z,1.17
2018-08-12T18:22:20.864Z,1.47
2018-08-12T18:24:48.369Z,1.20
2018-08-12T18:27:16.003Z,1.30
2018-08-12T18:29:43.653Z,1.10
2018-08-12T18:32:11.348Z,1.40
2018-08-12T18:34:40.652Z,1.27
2018-08-12T18:37:11.541Z,1.00
2018-08-12T18:39:57.054Z,1.20
2018-08-12T18:42:26.423Z,1.10
2018-08-12T18:44:55.825Z,1.00
2018-08-12T18:47:48.527Z,1.20
2018-08-12T18:50:41.186Z,1.40
2018-08-12T18:53:29.544Z,1.20
2018-08-12T18:56:06.157Z,1.20
2018-08-12T18:58:56.584Z,1.20
2018-08-12T19:01:49.569Z,1.13
2018-08-12T19:04:37.450Z,1.43
2018-08-12T19:07:29.919Z,1.27
2018-08-12T19:10:25.255Z,1.33
2018-08-12T19:13:16.551Z,1.30
2018-08-12T19:16:07.359Z,1.20
2018-08-12T19:18:58.655Z,1.10
2018-08-12T19:21:49.975Z,1.30
2018-08-12T19:24:42.153Z,1.07
2018-08-12T19:27:34.710Z,1.33
2018-08-12T19:30:27.416Z,1.00
2018-08-12T19:33:17.457Z,1.30
2018-08-12T19:36:08.835Z,1.40
2018-08-12T19:39:00.260Z,1.27
2018-08-12T19:41:54.554Z,1.40
2018-08-12T19:44:22.953Z,1.40
2018-08-12T19:46:51.218Z,1.43
2018-08-12T19:49:19.408Z,1.50
2018-08-12T19:51:47.080Z,1.30
2018-08-12T19:54:15.671Z,1.67
2018-08-12T19:56:45.735Z,1.60
2018-08-12T19:59:14.052Z,1.70
2018-08-12T20:01:42.920Z,1.60
2018-08-12T20:04:10.717Z,1.70
2018-08-12T20:06:40.004Z,1.40
2018-08-12T20:09:10.148Z,1.60
2018-08-12T20:11:39.829Z,1.50
2018-08-12T20:14:07.954Z,1.43
2018-08-12T20:16:35.707Z,1.83
2018-08-12T20:19:03.504Z,1.90
2018-08-12T20:21:32.195Z,1.50
2018-08-12T20:24:00.269Z,1.97
2018-08-12T20:26:28.801Z,1.93
2018-08-12T20:28:58.240Z,1.83
2018-08-12T20:31:26.554Z,2.00
2018-08-12T20:33:54.600Z,1.67
2018-08-12T20:36:23.216Z,1.80
2018-08-12T20:38:50.895Z,1.80
2018-08-12T20:41:18.549Z,1.53
2018-08-12T20:43:46.218Z,1.43
2018-08-12T20:46:13.845Z,1.80
2018-08-12T20:48:42.439Z,1.70
2018-08-12T20:51:10.884Z,1.40
2018-08-12T20:53:39.170Z,1.97
2018-08-12T20:56:08.166Z,1.80
2018-08-12T20:58:36.940Z,2.20
2018-08-12T21:01:07.497Z,1.87
2018-08-12T21:03:35.695Z,2.17
2018-08-12T21:06:04.027Z,1.70
2018-08-12T21:08:32.324Z,2.10
2018-08-12T21:11:01.816Z,2.13
2018-08-12T21:13:30.416Z,2.00
2018-08-12T21:15:59.603Z,1.40
2018-08-12T21:18:28.885Z,1.80
2018-08-12T21:20:57.204Z,1.50
2018-08-12T21:23:26.387Z,1.70
2018-08-12T21:25:57.163Z,1.50
2018-08-12T21:28:25.470Z,1.80
2018-08-12T21:30:53.115Z,1.60
2018-08-12T21:33:23.514Z,1.70
2018-08-12T21:35:51.724Z,1.40
2018-08-12T21:38:20.046Z,1.60
2018-08-12T21:40:49.764Z,1.40
2018-08-12T21:43:17.431Z,1.60
2018-08-12T21:45:45.055Z,1.83
2018-08-12T21:48:12.727Z,1.50
2018-08-12T21:50:40.385Z,1.50
2018-08-12T21:53:08.030Z,1.30
2018-08-12T21:55:35.686Z,1.70
2018-08-12T21:58:03.392Z,1.63
2018-08-12T22:00:31.160Z,1.40
2018-08-12T22:02:58.816Z,1.80
2018-08-12T22:05:26.480Z,2.10
2018-08-12T22:07:54.141Z,1.60
2018-08-12T22:10:21.865Z,1.40
2018-08-12T22:12:49.580Z,1.77
2018-08-12T22:15:17.230Z,1.90
2018-08-12T22:17:44.868Z,1.40
2018-08-12T22:20:12.594Z,1.50
2018-08-12T22:22:40.220Z,1.73
2018-08-12T22:25:07.826Z,1.50
2018-08-12T22:27:35.401Z,2.00
2018-08-12T22:30:03.173Z,1.57
2018-08-12T22:32:30.875Z,1.60
2018-08-12T22:34:58.555Z,1.87
2018-08-12T22:37:26.256Z,1.70
2018-08-12T22:39:53.774Z,1.90
2018-08-12T22:42:21.439Z,2.10
2018-08-12T22:44:49.065Z,2.10
2018-08-12T22:47:16.710Z,1.83
2018-08-12T22:49:44.466Z,2.20
2018-08-12T22:52:11.989Z,2.00
2018-08-12T22:54:39.647Z,2.00
2018-08-12T22:57:07.232Z,1.80
2018-08-12T22:59:35.006Z,1.67
2018-08-12T23:02:02.730Z,1.83
2018-08-12T23:04:30.481Z,1.70
2018-08-12T23:06:58.176Z,1.70
2018-08-12T23:09:25.774Z,1.50
2018-08-12T23:11:53.365Z,1.90
2018-08-12T23:14:20.970Z,2.07
2018-08-12T23:16:57.214Z,1.87
2018-08-12T23:19:24.932Z,1.77
2018-08-12T23:21:52.602Z,1.87
2018-08-12T23:24:20.201Z,1.70
2018-08-12T23:26:47.822Z,1.83
2018-08-12T23:29:15.509Z,1.87
2018-08-12T23:31:43.126Z,1.70
2018-08-12T23:34:10.727Z,1.70
2018-08-12T23:36:38.211Z,1.70
2018-08-12T23:39:07.616Z,1.80
2018-08-12T23:41:35.127Z,1.87
2018-08-12T23:44:04.098Z,1.95
2018-08-12T23:46:31.730Z,1.90
2018-08-12T23:48:59.252Z,1.40
2018-08-12T23:51:26.992Z,1.90
2018-08-12T23:53:54.621Z,2.00
2018-08-12T23:56:22.310Z,2.10
2018-08-12T23:58:49.959Z,2.00
